An Xiu Shan — BRQV — position and weather

sailwx.info

Track history (hours):
 
Tides and Currents Weather Stations Pressure Air Temp Water Temp Dewpoint Dewpoint Depression Visibility Wind Speed Wind Dir Waves Ship Positions

An Xiu Shan

Last reported at 2017-Mar-22 01:22 UTC. Time now 2017-Mar-24 08:13 UTC.
Position N 37°56' E 122°04'.

Length 199 m; draft 12.5 m.

Type: Cargo ship. MMSI: 413195000.

Date/timePositionNaut miles runAvg speedWind from/ knotsBaromVisibWave heightAir tempDewpointWater temp
2017-Mar-22 01:22N 37°56' E 122°04'1310.5
2017-Mar-22 00:07N 38°04' E 121°51'710.5
2017-Mar-21 23:29N 38°07' E 121°44'2010.4
2017-Mar-21 21:32N 38°19' E 121°22'  
2017-Mar-13 10:33N 38°47' E 120°51'10 9.8
2017-Mar-13 09:33N 38°39' E 120°57'10 9.7
2017-Mar-13 08:32N 38°32' E 121°06'1010.6
2017-Mar-13 07:33N 38°26' E 121°17'1310.7
2017-Mar-13 06:23N 38°19' E 121°30'  
Track history (hours):
 
Tides and Currents Weather Stations Pressure Air Temp Water Temp Dewpoint Dewpoint Depression Visibility Wind Speed Wind Dir Waves Ship Positions

An Xiu Shan

Last reported at 2017-Mar-22 01:22 UTC. Time now 2017-Mar-24 08:13 UTC.
Position N 37°56' E 122°04'.

Length 199 m; draft 12.5 m.

Type: Cargo ship. MMSI: 413195000.

Date/timePositionNaut miles runAvg speedWind from/ knotsBaromVisibWave heightAir tempDewpointWater temp
2017-Mar-22 01:22N 37°56' E 122°04'1310.5
2017-Mar-22 00:07N 38°04' E 121°51'710.5
2017-Mar-21 23:29N 38°07' E 121°44'2010.4
2017-Mar-21 21:32N 38°19' E 121°22'  
2017-Mar-13 10:33N 38°47' E 120°51'10 9.8
2017-Mar-13 09:33N 38°39' E 120°57'10 9.7
2017-Mar-13 08:32N 38°32' E 121°06'1010.6
2017-Mar-13 07:33N 38°26' E 121°17'1310.7
2017-Mar-13 06:23N 38°19' E 121°30'  

Dump ship's entire track history